createdAt,value
2023-05-14T00:00:29.428Z,6.85
2023-05-14T00:02:56.434Z,6.20
2023-05-14T00:05:23.363Z,4.90
2023-05-14T00:07:50.084Z,6.70
2023-05-14T00:10:19.120Z,7.88
2023-05-14T00:12:45.968Z,6.45
2023-05-14T00:15:12.726Z,9.23
2023-05-14T00:17:39.437Z,10.23
2023-05-14T00:20:09.411Z,9.43
2023-05-14T00:22:37.274Z,6.95
2023-05-14T00:25:04.609Z,10.70
2023-05-14T00:27:31.258Z,10.45
2023-05-14T00:29:57.898Z,10.30
2023-05-14T00:32:24.961Z,11.77
2023-05-14T00:34:51.616Z,9.40
2023-05-14T00:37:18.215Z,7.63
2023-05-14T00:39:44.908Z,14.70
2023-05-14T00:42:11.625Z,11.77
2023-05-14T00:44:38.341Z,10.35
2023-05-14T00:47:05.482Z,9.73
2023-05-14T00:49:32.430Z,10.02
2023-05-14T00:52:00.574Z,13.30
2023-05-14T00:54:28.425Z,8.07
2023-05-14T00:56:55.331Z,8.77
2023-05-14T00:59:22.005Z,8.80
2023-05-14T01:01:48.672Z,7.95
2023-05-14T01:04:15.972Z,7.55
2023-05-14T01:06:48.812Z,4.57
2023-05-14T01:09:25.864Z,6.95
2023-05-14T01:12:09.036Z,8.82
2023-05-14T01:14:54.336Z,6.70
2023-05-14T01:17:23.020Z,7.45
2023-05-14T01:19:50.461Z,6.75
2023-05-14T01:22:17.131Z,5.88
2023-05-14T01:24:43.923Z,7.97
2023-05-14T01:27:30.249Z,10.63
2023-05-14T01:30:15.841Z,9.10
2023-05-14T01:32:45.255Z,7.43
2023-05-14T01:35:13.046Z,9.32
2023-05-14T01:37:41.241Z,7.68
2023-05-14T01:40:09.840Z,7.38
2023-05-14T01:42:37.634Z,7.43
2023-05-14T01:45:05.168Z,15.07
2023-05-14T01:47:31.976Z,10.13
2023-05-14T01:49:58.734Z,8.18
2023-05-14T01:52:25.448Z,9.52
2023-05-14T01:54:52.148Z,7.90
2023-05-14T01:57:20.128Z,9.07
2023-05-14T01:59:46.881Z,6.50
2023-05-14T02:02:13.529Z,4.65
2023-05-14T02:04:40.316Z,6.80
2023-05-14T02:07:06.956Z,4.82
2023-05-14T02:09:33.721Z,6.57
2023-05-14T02:12:00.432Z,6.32
2023-05-14T02:14:27.058Z,5.63
2023-05-14T02:16:53.809Z,5.25
2023-05-14T02:19:20.572Z,6.45
2023-05-14T02:21:48.138Z,5.72
2023-05-14T02:24:14.993Z,5.53
2023-05-14T02:26:42.298Z,8.57
2023-05-14T02:29:09.197Z,5.78
2023-05-14T02:31:36.013Z,5.40
2023-05-14T02:34:03.974Z,3.58
2023-05-14T02:36:30.887Z,11.50
2023-05-14T02:38:59.278Z,7.45
2023-05-14T02:41:25.931Z,6.72
2023-05-14T02:43:53.526Z,10.32
2023-05-14T02:46:20.365Z,10.38
2023-05-14T02:48:46.995Z,7.38
2023-05-14T02:51:13.685Z,5.82
2023-05-14T02:53:40.572Z,6.28
2023-05-14T02:56:08.278Z,8.23
2023-05-14T02:58:35.004Z,7.28
2023-05-14T03:01:01.832Z,7.35
2023-05-14T03:03:30.104Z,4.65
2023-05-14T03:05:57.373Z,7.82
2023-05-14T03:08:24.159Z,4.60
2023-05-14T03:10:50.993Z,3.45
2023-05-14T03:13:20.059Z,7.38
2023-05-14T03:15:47.597Z,5.10
2023-05-14T03:18:15.189Z,4.30
2023-05-14T03:20:42.198Z,7.40
2023-05-14T03:23:08.892Z,6.93
2023-05-14T03:25:35.604Z,6.38
2023-05-14T03:28:03.645Z,7.22
2023-05-14T03:30:30.692Z,7.80
2023-05-14T03:32:57.588Z,5.97
2023-05-14T03:35:24.416Z,9.35
2023-05-14T03:37:52.953Z,5.75
2023-05-14T03:40:19.609Z,5.22
2023-05-14T03:42:46.460Z,9.13
2023-05-14T03:45:13.098Z,7.82
2023-05-14T03:47:39.797Z,5.40
2023-05-14T03:50:07.509Z,7.70
2023-05-14T03:52:34.255Z,4.68
2023-05-14T03:55:00.912Z,5.22
2023-05-14T03:57:27.523Z,5.22
2023-05-14T03:59:54.130Z,9.18
2023-05-14T04:02:20.802Z,9.88
2023-05-14T04:04:47.541Z,7.55
2023-05-14T04:07:14.483Z,8.10
2023-05-14T04:09:41.146Z,13.73
2023-05-14T04:12:08.272Z,12.50
2023-05-14T04:14:34.933Z,5.85
2023-05-14T04:17:01.561Z,10.60
2023-05-14T04:19:28.341Z,8.15
2023-05-14T04:21:55.177Z,8.85
2023-05-14T04:24:24.484Z,10.73
2023-05-14T04:26:51.198Z,8.75
2023-05-14T04:29:17.829Z,8.65
2023-05-14T04:31:44.760Z,7.28
2023-05-14T04:34:11.597Z,8.63
2023-05-14T04:36:38.259Z,6.47
2023-05-14T04:39:06.111Z,12.75
2023-05-14T04:41:32.872Z,20.42
2023-05-14T04:44:01.592Z,13.98
2023-05-14T04:46:28.773Z,12.63
2023-05-14T04:48:56.588Z,15.50
2023-05-14T04:51:24.041Z,14.40
2023-05-14T04:53:50.697Z,12.55
2023-05-14T04:56:17.329Z,10.43
2023-05-14T04:58:44.049Z,14.40
2023-05-14T05:01:10.705Z,11.40
2023-05-14T05:03:37.438Z,10.93
2023-05-14T05:06:04.370Z,13.95
2023-05-14T05:08:30.986Z,12.88
2023-05-14T05:10:57.594Z,15.40
2023-05-14T05:13:24.239Z,12.27
2023-05-14T05:15:51.236Z,10.52
2023-05-14T05:18:17.871Z,14.13
2023-05-14T05:20:44.503Z,11.77
2023-05-14T05:23:11.243Z,15.82
2023-05-14T05:25:37.937Z,12.25
2023-05-14T05:28:04.765Z,12.43
2023-05-14T05:30:31.510Z,7.78
2023-05-14T05:32:58.449Z,12.48
2023-05-14T05:35:25.238Z,6.90
2023-05-14T05:37:51.919Z,6.93
2023-05-14T05:40:19.172Z,6.45
2023-05-14T05:42:45.922Z,5.68
2023-05-14T05:45:12.617Z,5.38
2023-05-14T05:47:39.320Z,5.35
2023-05-14T05:50:07.660Z,5.05
2023-05-14T05:52:34.453Z,12.68
2023-05-14T05:55:01.167Z,8.05
2023-05-14T05:57:27.956Z,6.18
2023-05-14T05:59:54.692Z,6.68
2023-05-14T06:02:21.592Z,7.80
2023-05-14T06:04:48.762Z,5.45
2023-05-14T06:07:15.496Z,8.65
2023-05-14T06:09:42.269Z,4.13
2023-05-14T06:12:09.213Z,4.75
2023-05-14T06:14:35.865Z,10.02
2023-05-14T06:17:02.624Z,6.55
2023-05-14T06:19:29.408Z,4.93
2023-05-14T06:21:56.143Z,5.15
2023-05-14T06:24:22.726Z,5.88
2023-05-14T06:26:49.501Z,4.95
2023-05-14T06:29:16.173Z,7.07
2023-05-14T06:31:43.004Z,5.80
2023-05-14T06:34:09.649Z,7.43
2023-05-14T06:36:36.309Z,5.20
2023-05-14T06:39:03.712Z,5.30
2023-05-14T06:41:30.451Z,8.15
2023-05-14T06:43:57.809Z,7.30
2023-05-14T06:46:24.457Z,4.28
2023-05-14T06:48:51.169Z,5.63
2023-05-14T06:51:17.831Z,7.15
2023-05-14T06:53:44.555Z,6.85
2023-05-14T06:56:11.431Z,5.50
2023-05-14T06:58:38.093Z,6.38
2023-05-14T07:01:05.189Z,5.78
2023-05-14T07:03:32.808Z,7.80
2023-05-14T07:05:59.449Z,5.38
2023-05-14T07:08:26.191Z,5.55
2023-05-14T07:10:52.867Z,6.28
2023-05-14T07:13:19.530Z,5.65
2023-05-14T07:15:46.148Z,4.50
2023-05-14T07:18:12.792Z,7.40
2023-05-14T07:20:39.621Z,9.13
2023-05-14T07:23:06.341Z,5.13
2023-05-14T07:25:32.990Z,5.95
2023-05-14T07:27:59.632Z,7.97
2023-05-14T07:30:26.465Z,7.85
2023-05-14T07:32:53.334Z,7.70
2023-05-14T07:35:20.279Z,5.95
2023-05-14T07:37:48.913Z,7.07
2023-05-14T07:40:15.879Z,5.35
2023-05-14T07:42:42.527Z,6.22
2023-05-14T07:45:10.045Z,8.48
2023-05-14T07:47:36.798Z,11.95
2023-05-14T07:50:03.682Z,5.20
2023-05-14T07:52:30.415Z,6.43
2023-05-14T07:54:57.131Z,4.68
2023-05-14T07:57:23.757Z,11.23
2023-05-14T07:59:50.519Z,7.35
2023-05-14T08:02:17.860Z,6.35
2023-05-14T08:04:45.096Z,9.00
2023-05-14T08:07:12.004Z,7.75
2023-05-14T08:09:38.846Z,7.80
2023-05-14T08:12:06.282Z,10.20
2023-05-14T08:14:32.973Z,6.80
2023-05-14T08:16:59.687Z,5.70
2023-05-14T08:19:27.563Z,11.60
2023-05-14T08:21:54.385Z,8.48
2023-05-14T08:24:21.483Z,7.43
2023-05-14T08:26:48.156Z,5.20
2023-05-14T08:29:16.596Z,4.93
2023-05-14T08:31:43.809Z,6.85
2023-05-14T08:34:10.934Z,6.20
2023-05-14T08:36:38.887Z,3.90
2023-05-14T08:39:07.870Z,4.50
2023-05-14T08:41:35.103Z,3.80
2023-05-14T08:44:21.442Z,4.45
2023-05-14T08:46:49.876Z,5.90
2023-05-14T08:49:41.855Z,4.38
2023-05-14T08:52:12.056Z,10.23
2023-05-14T08:54:40.420Z,7.15
2023-05-14T08:57:09.787Z,4.20
2023-05-14T08:59:36.713Z,4.45
2023-05-14T09:02:06.530Z,7.95
2023-05-14T09:04:33.919Z,5.45
2023-05-14T09:07:02.127Z,3.92
2023-05-14T09:09:28.995Z,5.90
2023-05-14T09:11:56.101Z,5.85
2023-05-14T09:14:23.479Z,5.00
2023-05-14T09:16:51.617Z,6.45
2023-05-14T09:19:19.501Z,4.07
2023-05-14T09:21:47.585Z,5.45
2023-05-14T09:24:22.031Z,8.13
2023-05-14T09:26:57.289Z,4.40
2023-05-14T09:29:28.864Z,6.97
2023-05-14T09:31:56.822Z,4.13
2023-05-14T09:34:25.412Z,3.80
2023-05-14T09:37:02.742Z,7.63
2023-05-14T09:39:30.126Z,3.75
2023-05-14T09:41:57.824Z,4.60
2023-05-14T09:44:25.076Z,4.97
2023-05-14T09:46:52.978Z,4.00
2023-05-14T09:49:20.208Z,6.53
2023-05-14T09:51:47.539Z,5.35
2023-05-14T09:54:14.411Z,6.63
2023-05-14T09:56:49.257Z,5.68
2023-05-14T10:01:44.011Z,3.60
2023-05-14T10:04:11.549Z,6.47
2023-05-14T10:06:39.140Z,6.03
2023-05-14T10:09:14.509Z,4.20
2023-05-14T10:11:44.300Z,10.13
2023-05-14T10:14:19.354Z,6.43
2023-05-14T10:16:51.677Z,8.30
2023-05-14T10:19:21.051Z,6.30
2023-05-14T10:21:57.015Z,5.10
2023-05-14T10:24:24.965Z,11.07
2023-05-14T10:26:51.852Z,6.82
2023-05-14T10:36:05.097Z,5.13
2023-05-14T10:38:37.034Z,4.85
2023-05-14T10:41:13.808Z,4.47
2023-05-14T10:43:41.866Z,5.60
2023-05-14T10:46:13.738Z,5.30
2023-05-14T10:48:44.006Z,4.65
2023-05-14T10:51:11.564Z,5.93
2023-05-14T10:53:41.828Z,5.97
2023-05-14T10:56:14.903Z,6.38
2023-05-14T10:58:52.516Z,4.43
2023-05-14T11:01:19.192Z,6.50
2023-05-14T11:03:47.004Z,6.35
2023-05-14T11:06:15.603Z,9.90
2023-05-14T11:08:42.954Z,7.50
2023-05-14T11:11:10.285Z,8.35
2023-05-14T11:13:36.978Z,8.30
2023-05-14T11:16:11.949Z,5.05
2023-05-14T11:18:53.848Z,4.75
2023-05-14T11:21:20.771Z,6.90
2023-05-14T11:23:47.446Z,5.65
2023-05-14T11:26:14.049Z,8.07
2023-05-14T11:28:40.948Z,7.55
2023-05-14T11:31:07.949Z,23.00
2023-05-14T11:33:36.152Z,5.43
2023-05-14T11:36:02.929Z,6.10
2023-05-14T11:38:29.582Z,7.38
2023-05-14T11:40:57.580Z,6.13
2023-05-14T11:43:24.695Z,7.05
2023-05-14T11:45:52.772Z,8.27
2023-05-14T11:48:20.470Z,6.90
2023-05-14T11:50:52.024Z,8.77
2023-05-14T11:53:20.232Z,7.10
2023-05-14T11:55:47.769Z,7.13
2023-05-14T11:58:15.905Z,5.72
2023-05-14T12:00:45.435Z,5.95
2023-05-14T12:03:12.601Z,4.32
2023-05-14T12:05:39.748Z,8.43
2023-05-14T12:08:29.955Z,6.32
2023-05-14T12:10:58.822Z,6.20
2023-05-14T12:13:29.913Z,5.65
2023-05-14T12:15:58.315Z,8.98
2023-05-14T12:18:26.175Z,4.13
2023-05-14T12:20:53.095Z,5.85
2023-05-14T12:23:46.023Z,6.20
2023-05-14T12:26:12.732Z,5.28
2023-05-14T12:28:43.514Z,4.80
2023-05-14T12:31:10.524Z,10.82
2023-05-14T12:33:37.294Z,5.65
2023-05-14T12:36:20.633Z,5.53
2023-05-14T12:38:49.973Z,6.38
2023-05-14T12:41:17.917Z,4.10
2023-05-14T12:43:45.158Z,7.55
2023-05-14T12:46:11.834Z,8.85
2023-05-14T12:48:38.662Z,4.72
2023-05-14T12:51:05.666Z,5.57
2023-05-14T12:53:32.325Z,6.15
2023-05-14T12:55:59.149Z,5.53
2023-05-14T12:58:25.766Z,4.47
2023-05-14T13:00:52.515Z,5.57
2023-05-14T13:03:19.282Z,6.13
2023-05-14T13:05:45.951Z,10.10
2023-05-14T13:08:14.977Z,6.03
2023-05-14T13:10:41.783Z,5.28
2023-05-14T13:13:08.565Z,6.75
2023-05-14T13:15:36.393Z,5.70
2023-05-14T13:18:03.250Z,5.75
2023-05-14T13:20:32.507Z,5.78
2023-05-14T13:22:59.164Z,4.57
2023-05-14T13:25:26.235Z,7.45
2023-05-14T13:27:53.108Z,6.07
2023-05-14T13:30:20.221Z,4.78
2023-05-14T13:32:47.114Z,4.68
2023-05-14T13:35:14.381Z,6.35
2023-05-14T13:37:43.857Z,4.90
2023-05-14T13:40:11.090Z,6.00
2023-05-14T13:42:39.723Z,4.00
2023-05-14T13:45:07.104Z,5.45
2023-05-14T13:47:33.967Z,5.97
2023-05-14T13:50:00.622Z,5.07
2023-05-14T13:52:27.378Z,7.10
2023-05-14T13:54:54.215Z,8.00
2023-05-14T13:57:22.059Z,7.72
2023-05-14T13:59:49.014Z,4.00
2023-05-14T14:02:15.725Z,4.93
2023-05-14T14:04:42.415Z,4.03
2023-05-14T14:07:09.293Z,4.95
2023-05-14T14:09:36.988Z,5.20
2023-05-14T14:12:06.309Z,6.82
2023-05-14T14:14:33.070Z,5.07
2023-05-14T14:16:59.729Z,6.10
2023-05-14T14:19:26.323Z,5.43
2023-05-14T14:21:53.313Z,5.55
2023-05-14T14:24:20.377Z,4.65
2023-05-14T14:26:47.089Z,6.18
2023-05-14T14:29:13.872Z,8.05
2023-05-14T14:31:40.748Z,6.28
2023-05-14T14:34:07.524Z,9.05
2023-05-14T14:36:34.294Z,5.70
2023-05-14T14:39:01.086Z,4.05
2023-05-14T14:41:27.848Z,6.07
2023-05-14T14:43:54.466Z,5.60
2023-05-14T14:46:21.236Z,6.32
2023-05-14T14:48:47.987Z,5.00
2023-05-14T14:51:14.683Z,5.63
2023-05-14T14:53:41.419Z,3.90
2023-05-14T14:56:08.241Z,6.15
2023-05-14T14:58:35.023Z,6.65
2023-05-14T15:01:01.872Z,5.78
2023-05-14T15:03:29.077Z,14.50
2023-05-14T15:05:55.993Z,4.18
2023-05-14T15:08:27.494Z,5.75
2023-05-14T15:10:55.585Z,4.88
2023-05-14T15:13:22.244Z,5.05
2023-05-14T15:15:50.941Z,5.65
2023-05-14T15:18:17.657Z,5.35
2023-05-14T15:20:44.662Z,4.00
2023-05-14T15:23:11.743Z,4.25
2023-05-14T15:25:38.498Z,5.20
2023-05-14T15:28:06.444Z,5.05
2023-05-14T15:30:33.520Z,6.70
2023-05-14T15:33:00.204Z,8.05
2023-05-14T15:35:26.960Z,7.88
2023-05-14T15:37:56.100Z,8.57
2023-05-14T15:40:23.299Z,8.07
2023-05-14T15:42:50.224Z,4.07
2023-05-14T15:45:16.897Z,4.22
2023-05-14T15:47:45.232Z,3.67
2023-05-14T15:50:12.312Z,5.40
2023-05-14T15:52:39.462Z,4.65
2023-05-14T15:55:06.667Z,4.80
2023-05-14T15:57:33.629Z,7.82
2023-05-14T16:00:00.447Z,4.10
2023-05-14T16:02:30.536Z,4.00
2023-05-14T16:04:57.499Z,5.70
2023-05-14T16:07:24.317Z,5.35
2023-05-14T16:09:51.185Z,20.45
2023-05-14T16:12:18.117Z,4.70
2023-05-14T16:14:45.466Z,9.00
2023-05-14T16:17:12.584Z,5.40
2023-05-14T16:19:39.696Z,8.13
2023-05-14T16:22:06.616Z,4.68
2023-05-14T16:24:33.355Z,6.07
2023-05-14T16:27:00.886Z,6.28
2023-05-14T16:29:27.908Z,9.07
2023-05-14T16:31:54.879Z,6.45
2023-05-14T16:34:21.725Z,9.30
2023-05-14T16:36:48.557Z,7.10
2023-05-14T16:39:15.203Z,7.78
2023-05-14T16:41:41.881Z,5.65
2023-05-14T16:44:08.585Z,8.77
2023-05-14T16:46:35.375Z,8.95
2023-05-14T16:49:02.634Z,7.35
2023-05-14T16:51:29.421Z,6.22
2023-05-14T16:53:56.357Z,5.45
2023-05-14T16:56:23.210Z,9.07
2023-05-14T16:58:49.901Z,6.82
2023-05-14T17:01:16.650Z,6.47
2023-05-14T17:03:44.865Z,6.78
2023-05-14T17:06:11.797Z,10.10
2023-05-14T17:08:38.509Z,16.88
2023-05-14T17:11:06.053Z,22.58
2023-05-14T17:13:33.248Z,20.05
2023-05-14T17:16:00.765Z,11.85
2023-05-14T17:18:27.855Z,24.33
2023-05-14T17:20:54.561Z,15.77
2023-05-14T17:23:21.329Z,12.20
2023-05-14T17:25:48.083Z,15.60
2023-05-14T17:28:14.801Z,15.98
2023-05-14T17:30:41.608Z,25.73
2023-05-14T17:33:08.401Z,13.63
2023-05-14T17:35:36.455Z,14.55
2023-05-14T17:38:03.691Z,8.65
2023-05-14T17:40:30.506Z,11.70
2023-05-14T17:42:57.265Z,12.13
2023-05-14T17:45:24.275Z,12.13
2023-05-14T17:47:51.507Z,9.15
2023-05-14T17:50:19.094Z,10.82
2023-05-14T17:52:46.251Z,11.57
2023-05-14T17:55:13.194Z,13.68
2023-05-14T17:57:40.106Z,14.18
2023-05-14T18:00:07.735Z,12.50
2023-05-14T18:02:35.076Z,14.48
2023-05-14T18:05:02.917Z,18.55
2023-05-14T18:07:30.406Z,17.40
2023-05-14T18:09:57.292Z,13.23
2023-05-14T18:12:25.858Z,16.92
2023-05-14T18:14:52.556Z,14.00
2023-05-14T18:17:19.268Z,13.80
2023-05-14T18:19:45.996Z,14.40
2023-05-14T18:22:12.941Z,16.63
2023-05-14T18:24:39.645Z,15.90
2023-05-14T18:27:06.468Z,16.80
2023-05-14T18:29:33.130Z,17.55
2023-05-14T18:31:59.798Z,13.40
2023-05-14T18:34:26.651Z,17.27
2023-05-14T18:36:53.460Z,17.60
2023-05-14T18:39:20.210Z,13.80
2023-05-14T18:41:46.949Z,18.02
2023-05-14T18:44:13.690Z,23.25
2023-05-14T18:46:40.563Z,16.83
2023-05-14T18:49:07.293Z,24.33
2023-05-14T18:51:33.953Z,39.08
2023-05-14T18:54:00.736Z,23.38
2023-05-14T18:56:27.394Z,21.08
2023-05-14T18:58:54.480Z,56.08
2023-05-14T19:01:21.456Z,45.47
2023-05-14T19:03:48.315Z,32.67
2023-05-14T19:06:15.172Z,22.67
2023-05-14T19:08:41.855Z,29.52
2023-05-14T19:11:08.643Z,25.67
2023-05-14T19:13:35.244Z,25.40
2023-05-14T19:16:01.976Z,26.73
2023-05-14T19:18:41.988Z,28.02
2023-05-14T19:21:08.798Z,23.77
2023-05-14T19:23:35.705Z,24.92
2023-05-14T19:26:02.338Z,26.92
2023-05-14T19:28:28.956Z,24.63
2023-05-14T19:30:57.384Z,19.58
2023-05-14T19:33:24.395Z,19.08
2023-05-14T19:35:51.415Z,16.00
2023-05-14T19:38:19.245Z,24.83
2023-05-14T19:40:45.931Z,20.08
2023-05-14T19:43:12.644Z,18.50
2023-05-14T19:45:39.464Z,15.52
2023-05-14T19:48:06.884Z,17.65
2023-05-14T19:50:33.874Z,18.00
2023-05-14T19:53:01.209Z,17.65
2023-05-14T19:55:27.905Z,15.18
2023-05-14T19:57:54.529Z,21.40
2023-05-14T20:00:22.482Z,23.73
2023-05-14T20:02:49.292Z,23.90
2023-05-14T20:05:16.743Z,25.08
2023-05-14T20:07:43.880Z,27.05
2023-05-14T20:10:10.955Z,45.92
2023-05-14T20:12:37.629Z,29.73
2023-05-14T20:15:04.573Z,31.25
2023-05-14T20:17:31.294Z,24.83
2023-05-14T20:20:01.580Z,26.80
2023-05-14T20:22:28.325Z,20.40
2023-05-14T20:24:55.035Z,17.67
2023-05-14T20:27:22.208Z,21.30
2023-05-14T20:29:51.465Z,20.10
2023-05-14T20:32:18.216Z,19.27
2023-05-14T20:34:44.957Z,12.10
2023-05-14T20:37:11.972Z,18.30
2023-05-14T20:39:38.621Z,16.27
2023-05-14T20:42:05.698Z,20.75
2023-05-14T20:44:32.467Z,12.30
2023-05-14T20:46:59.163Z,13.68
2023-05-14T20:49:25.999Z,12.18
2023-05-14T20:51:52.761Z,12.95
2023-05-14T20:54:19.352Z,12.25
2023-05-14T20:56:45.979Z,13.95
2023-05-14T20:59:12.646Z,17.00
2023-05-14T21:01:39.373Z,13.95
2023-05-14T21:04:06.327Z,18.08
2023-05-14T21:06:33.121Z,14.40
2023-05-14T21:08:59.836Z,17.05
2023-05-14T21:11:26.510Z,21.35
2023-05-14T21:13:53.181Z,19.75
2023-05-14T21:16:20.303Z,15.20
2023-05-14T21:18:47.163Z,14.30
2023-05-14T21:21:13.864Z,13.48
2023-05-14T21:23:40.594Z,13.00
2023-05-14T21:26:07.236Z,13.45
2023-05-14T21:28:33.919Z,15.52
2023-05-14T21:31:00.552Z,13.02
2023-05-14T21:33:27.165Z,14.68
2023-05-14T21:35:54.061Z,16.98
2023-05-14T21:38:20.839Z,22.23
2023-05-14T21:40:47.461Z,15.00
2023-05-14T21:43:14.258Z,11.00
2023-05-14T21:45:41.329Z,9.60
2023-05-14T21:48:08.120Z,9.57
2023-05-14T21:50:34.974Z,9.35
2023-05-14T21:53:01.661Z,8.82
2023-05-14T21:55:28.541Z,7.85
2023-05-14T21:57:55.180Z,14.02
2023-05-14T22:00:25.211Z,15.43
2023-05-14T22:02:55.267Z,15.30
2023-05-14T22:05:22.464Z,20.38
2023-05-14T22:07:49.346Z,21.23
2023-05-14T22:10:16.833Z,18.05
2023-05-14T22:12:44.621Z,17.98
2023-05-14T22:15:12.389Z,19.58
2023-05-14T22:17:39.259Z,31.80
2023-05-14T22:20:06.880Z,27.00
2023-05-14T22:22:34.278Z,28.58
2023-05-14T22:25:01.173Z,25.05
2023-05-14T22:27:27.971Z,33.13
2023-05-14T22:29:55.356Z,33.33
2023-05-14T22:32:22.153Z,32.60
2023-05-14T22:34:48.967Z,32.08
2023-05-14T22:37:15.805Z,30.30
2023-05-14T22:39:42.974Z,32.05
2023-05-14T22:42:09.760Z,26.67
2023-05-14T22:44:37.168Z,20.15
2023-05-14T22:47:07.415Z,22.98
2023-05-14T22:49:34.091Z,20.23
2023-05-14T22:52:01.450Z,20.42
2023-05-14T22:54:28.222Z,18.55
2023-05-14T22:56:54.842Z,19.90
2023-05-14T22:59:23.591Z,20.58
2023-05-14T23:01:50.826Z,20.15
2023-05-14T23:04:17.613Z,16.80
2023-05-14T23:06:44.577Z,17.17
2023-05-14T23:09:11.245Z,18.20
2023-05-14T23:11:37.996Z,16.98
2023-05-14T23:14:04.724Z,15.65
2023-05-14T23:16:31.999Z,11.10
2023-05-14T23:18:58.874Z,11.82
2023-05-14T23:21:25.749Z,13.32
2023-05-14T23:23:52.540Z,18.77
2023-05-14T23:26:19.214Z,11.85
2023-05-14T23:28:47.402Z,14.90
2023-05-14T23:31:14.103Z,12.10
2023-05-14T23:33:40.927Z,14.02
2023-05-14T23:36:08.142Z,13.23
2023-05-14T23:38:34.880Z,11.30
2023-05-14T23:41:01.600Z,11.57
2023-05-14T23:43:28.441Z,12.88
2023-05-14T23:45:55.344Z,11.15
2023-05-14T23:48:22.071Z,11.68
2023-05-14T23:50:48.732Z,10.52
2023-05-14T23:53:15.355Z,13.13
2023-05-14T23:55:42.006Z,9.93
2023-05-14T23:58:08.756Z,11.57
